Time;durP1;ratioP1;P1;durP2;ratioP2;P2;SDS_P1;SDS_P2;PMS_P1;PMS_P2;Temp;Humidity;BMP_temperature;BMP_pressure;BME280_temperature;BME280_humidity;BME280_pressure;Samples;Min_cycle;Max_cycle;Signal;HPM_P1;HPM_P2
2021/08/26 01:06:55;;;;;;;;;;;20.20;99.90;;;;;;2621030;39;20365;-72
2021/08/26 01:09:25;;;;;;;;;;;19.80;99.90;;;;;;2619402;46;19945;-74
2021/08/26 01:11:52;;;;;;;;;;;19.80;99.90;;;;;;2619894;54;19963;-74
2021/08/26 01:14:18;;;;;;;;;;;19.80;99.90;;;;;;2619346;46;19961;-73
2021/08/26 01:16:44;;;;;;;;;;;19.70;99.90;;;;;;2619239;47;19938;-74
2021/08/26 01:19:10;;;;;;;;;;;19.70;99.90;;;;;;2620150;39;20488;-72
2021/08/26 01:21:36;;;;;;;;;;;19.70;99.90;;;;;;2619824;54;19938;-74
2021/08/26 01:24:05;;;;;;;;;;;19.60;99.90;;;;;;2619350;46;19950;-72
2021/08/26 01:26:35;;;;;;;;;;;19.60;99.90;;;;;;2620088;54;19991;-74
2021/08/26 01:29:03;;;;;;;;;;;19.60;99.90;;;;;;2619970;54;19939;-75
2021/08/26 01:31:29;;;;;;;;;;;19.60;99.90;;;;;;2619403;46;19938;-75
2021/08/26 01:33:55;;;;;;;;;;;19.60;99.90;;;;;;2619554;54;19965;-72
2021/08/26 01:36:22;;;;;;;;;;;19.60;99.90;;;;;;2619451;54;19939;-73
2021/08/26 01:38:50;;;;;;;;;;;19.50;99.90;;;;;;2619520;54;19950;-74
2021/08/26 01:41:16;;;;;;;;;;;19.50;99.90;;;;;;2619740;54;20407;-73
2021/08/26 01:43:45;;;;;;;;;;;19.50;99.90;;;;;;2619189;47;20042;-73
2021/08/26 01:46:10;;;;;;;;;;;19.50;99.90;;;;;;2619703;54;19946;-73
2021/08/26 01:48:36;;;;;;;;;;;19.40;99.90;;;;;;2619178;46;19938;-72
2021/08/26 01:51:02;;;;;;;;;;;19.40;99.90;;;;;;2619349;54;19946;-73
2021/08/26 01:53:28;;;;;;;;;;;19.40;99.90;;;;;;2619496;54;19943;-72
2021/08/26 01:55:53;;;;;;;;;;;19.40;99.90;;;;;;2618862;46;19939;-72
2021/08/26 01:58:19;;;;;;;;;;;19.40;99.90;;;;;;2619492;54;20018;-73
2021/08/26 02:00:47;;;;;;;;;;;19.40;99.90;;;;;;2619616;54;19961;-73
2021/08/26 02:03:13;;;;;;;;;;;19.30;99.90;;;;;;2619090;54;19945;-72
2021/08/26 02:05:39;;;;;;;;;;;19.30;99.90;;;;;;2619453;54;19952;-72
2021/08/26 02:08:05;;;;;;;;;;;19.30;99.90;;;;;;2619326;31;20395;-72
2021/08/26 02:10:31;;;;;;;;;;;19.30;99.90;;;;;;2618915;47;19943;-73
2021/08/26 02:12:57;;;;;;;;;;;19.30;99.90;;;;;;2618743;46;20056;-74
2021/08/26 02:15:22;;;;;;;;;;;19.30;99.90;;;;;;2618945;47;19963;-72
2021/08/26 02:17:51;;;;;;;;;;;19.30;99.90;;;;;;2619603;54;19951;-74
2021/08/26 02:20:16;;;;;;;;;;;19.20;99.90;;;;;;2619462;54;19946;-73
2021/08/26 02:22:42;;;;;;;;;;;19.20;99.90;;;;;;2619434;54;19954;-73
2021/08/26 02:25:09;;;;;;;;;;;19.20;99.90;;;;;;2619351;54;19945;-73
2021/08/26 02:27:34;;;;;;;;;;;19.20;99.90;;;;;;2619300;54;19970;-73
2021/08/26 02:30:00;;;;;;;;;;;19.20;99.90;;;;;;2620005;39;20312;-74
2021/08/26 02:32:29;;;;;;;;;;;19.10;99.90;;;;;;2619732;54;19946;-73
2021/08/26 02:34:58;;;;;;;;;;;19.10;99.90;;;;;;2619435;54;20029;-74
2021/08/26 02:37:24;;;;;;;;;;;19.10;99.90;;;;;;2619344;54;19946;-74
2021/08/26 02:39:50;;;;;;;;;;;19.10;99.90;;;;;;2619537;54;20407;-73
2021/08/26 02:42:15;;;;;;;;;;;19.10;99.90;;;;;;2618977;47;19939;-72
2021/08/26 02:44:41;;;;;;;;;;;19.10;99.90;;;;;;2618681;47;19939;-74
2021/08/26 02:47:07;;;;;;;;;;;19.10;99.90;;;;;;2619307;54;19965;-76
2021/08/26 02:49:33;;;;;;;;;;;19.10;99.90;;;;;;2619410;54;19963;-73
2021/08/26 02:52:01;;;;;;;;;;;19.10;99.90;;;;;;2619443;54;19938;-72
2021/08/26 02:54:27;;;;;;;;;;;19.00;99.90;;;;;;2619906;39;20330;-73
2021/08/26 02:56:52;;;;;;;;;;;19.00;99.90;;;;;;2619056;47;19962;-72
2021/08/26 02:59:18;;;;;;;;;;;19.00;99.90;;;;;;2619849;54;19945;-72
2021/08/26 03:04:12;;;;;;;;;;;19.00;99.90;;;;;;2630735;54;19975;-76
2021/08/26 03:06:37;;;;;;;;;;;18.90;99.90;;;;;;2631048;54;20442;-77
2021/08/26 03:09:06;;;;;;;;;;;18.90;99.90;;;;;;2631232;54;19934;-76
2021/08/26 03:11:31;;;;;;;;;;;18.90;99.90;;;;;;2631308;46;19942;-76
2021/08/26 03:13:57;;;;;;;;;;;18.90;99.90;;;;;;2631164;54;19934;-75
2021/08/26 03:16:23;;;;;;;;;;;18.80;99.90;;;;;;2630385;54;19923;-76
2021/08/26 03:18:49;;;;;;;;;;;18.80;99.90;;;;;;2630313;54;19939;-75
2021/08/26 03:21:14;;;;;;;;;;;18.80;99.90;;;;;;2630825;47;19963;-76
2021/08/26 03:23:40;;;;;;;;;;;18.80;99.90;;;;;;2631103;54;20106;-76
2021/08/26 03:26:09;;;;;;;;;;;18.80;99.90;;;;;;2630782;54;20183;-76
2021/08/26 03:28:34;;;;;;;;;;;18.70;99.90;;;;;;2624748;47;19938;-75
2021/08/26 03:31:00;;;;;;;;;;;18.70;99.90;;;;;;2623200;54;19946;-75
2021/08/26 03:33:26;;;;;;;;;;;18.70;99.90;;;;;;2624214;54;19946;-74
2021/08/26 03:35:51;;;;;;;;;;;18.70;99.90;;;;;;2630381;47;19930;-78
2021/08/26 03:38:17;;;;;;;;;;;18.70;99.90;;;;;;2630355;54;19927;-78
2021/08/26 03:40:43;;;;;;;;;;;18.60;99.90;;;;;;2627209;39;20413;-73
